Time;durP1;ratioP1;P1;durP2;ratioP2;P2;SDS_P1;SDS_P2;PMS_P1;PMS_P2;Temp;Humidity;BMP_temperature;BMP_pressure;BME280_temperature;BME280_humidity;BME280_pressure;Samples;Min_cycle;Max_cycle;Signal;HPM_P1;HPM_P2
2023/12/11 00:04:14;;;;;;;34.88;5.03;;;10.40;42.80;;;;;;20795678;28;20188;-48
2023/12/11 00:14:15;;;;;;;38.53;5.10;;;10.40;50.00;;;;;;20806475;28;20045;-48
2023/12/11 00:24:15;;;;;;;45.33;5.45;;;10.40;50.50;;;;;;20798273;28;20356;-48
2023/12/11 00:34:16;;;;;;;45.63;5.43;;;10.40;51.20;;;;;;20798561;28;20037;-48
2023/12/11 00:44:16;;;;;;;38.45;7.22;;;10.40;70.70;;;;;;20803472;28;20084;-48
2023/12/11 00:54:17;;;;;;;37.08;5.20;;;10.60;63.20;;;;;;20787601;28;20523;-48
2023/12/11 01:04:17;;;;;;;47.05;5.90;;;10.70;47.50;;;;;;20812096;28;20159;-48
2023/12/11 01:14:18;;;;;;;42.05;5.70;;;10.80;40.50;;;;;;20816479;28;20033;-48
2023/12/11 01:24:18;;;;;;;41.33;5.35;;;11.00;31.30;;;;;;20815183;28;20508;-47
2023/12/11 01:34:19;;;;;;;49.25;6.32;;;11.00;34.00;;;;;;20809296;28;20072;-47
2023/12/11 01:44:20;;;;;;;37.85;5.28;;;10.90;51.30;;;;;;20809692;28;20073;-47
2023/12/11 01:54:20;;;;;;;42.10;6.40;;;10.80;62.50;;;;;;20813348;28;20052;-47
2023/12/11 02:04:21;;;;;;;28.90;4.75;;;10.70;69.20;;;;;;20793867;28;20041;-49
2023/12/11 02:14:22;;;;;;;28.50;4.15;;;10.60;88.70;;;;;;20798737;28;20308;-46
2023/12/11 02:24:30;;;;;;;32.28;4.53;;;10.40;99.90;;;;;;20817464;28;20045;-47
2023/12/11 02:34:30;;;;;;;36.45;4.65;;;10.20;99.90;;;;;;20810699;28;20038;-47
2023/12/11 02:44:31;;;;;;;35.67;4.93;;;10.10;99.90;;;;;;20805629;28;20106;-46
2023/12/11 02:54:31;;;;;;;34.83;5.23;;;10.10;99.90;;;;;;20810419;28;20125;-46
2023/12/11 03:04:32;;;;;;;31.77;4.27;;;10.10;99.90;;;;;;20805384;28;20152;-46
2023/12/11 03:14:32;;;;;;;46.92;5.25;;;10.10;99.90;;;;;;20801072;28;20176;-46
2023/12/11 03:24:33;;;;;;;31.80;4.95;;;10.30;99.90;;;;;;20795249;28;20084;-46
2023/12/11 03:34:33;;;;;;;30.90;4.43;;;10.40;99.90;;;;;;20795967;28;20084;-46
2023/12/11 03:44:34;;;;;;;33.20;5.00;;;10.60;84.60;;;;;;20807837;28;20581;-46
2023/12/11 03:54:35;;;;;;;38.33;5.88;;;10.70;52.70;;;;;;20808149;28;20036;-47
2023/12/11 04:04:36;;;;;;;35.00;4.38;;;10.80;52.00;;;;;;20803418;28;20553;-47
2023/12/11 04:14:36;;;;;;;38.33;4.60;;;10.70;75.30;;;;;;20810130;28;20304;-46
2023/12/11 04:24:37;;;;;;;36.28;5.00;;;10.60;81.40;;;;;;20809579;28;20038;-46
2023/12/11 04:34:37;;;;;;;36.90;4.68;;;10.60;71.70;;;;;;20809620;28;20049;-46
2023/12/11 04:44:38;;;;;;;35.90;5.20;;;10.60;63.60;;;;;;20819830;28;20569;-47
2023/12/11 04:54:41;;;;;;;30.17;4.70;;;10.60;63.20;;;;;;20819918;28;20037;-46
2023/12/11 05:04:41;;;;;;;32.65;4.53;;;10.70;43.70;;;;;;20822342;28;20387;-47
2023/12/11 05:14:42;;;;;;;32.05;4.10;;;10.70;32.90;;;;;;20822653;28;20041;-47
2023/12/11 05:24:42;;;;;;;29.65;4.78;;;10.80;30.40;;;;;;20819522;28;20091;-47
2023/12/11 05:34:43;;;;;;;25.60;3.80;;;10.70;28.30;;;;;;20818415;28;20448;-47
2023/12/11 05:44:44;;;;;;;27.40;3.67;;;10.80;21.60;;;;;;20820040;28;20416;-47
2023/12/11 05:54:44;;;;;;;27.88;3.20;;;10.80;21.10;;;;;;20816483;28;20037;-47
2023/12/11 06:04:45;;;;;;;19.20;2.65;;;10.80;18.10;;;;;;20810648;28;20033;-47
2023/12/11 06:14:45;;;;;;;23.67;3.00;;;10.70;29.90;;;;;;20821641;28;20405;-46
2023/12/11 06:24:46;;;;;;;15.87;2.30;;;10.40;55.80;;;;;;20811613;28;20041;-47
2023/12/11 06:34:46;;;;;;;28.27;3.38;;;10.30;59.10;;;;;;20802899;28;20754;-47
2023/12/11 06:44:47;;;;;;;21.05;2.83;;;10.30;55.30;;;;;;20805624;28;21165;-46
2023/12/11 06:54:47;;;;;;;18.38;2.90;;;10.30;58.70;;;;;;20803884;28;20064;-46
2023/12/11 07:04:48;;;;;;;12.23;1.85;;;10.30;74.20;;;;;;20812498;28;20044;-46
2023/12/11 07:14:49;;;;;;;15.73;2.47;;;10.30;69.00;;;;;;20800225;28;20037;-46
2023/12/11 07:24:50;;;;;;;13.13;2.10;;;10.30;76.90;;;;;;20795081;28;20445;-46
2023/12/11 07:34:50;;;;;;;12.48;1.70;;;10.20;90.70;;;;;;20794447;28;20773;-46
2023/12/11 07:44:51;;;;;;;10.45;1.77;;;10.20;86.60;;;;;;20799197;28;20124;-46
2023/12/11 07:54:51;;;;;;;16.25;2.08;;;10.00;94.00;;;;;;20788489;28;20075;-46
2023/12/11 08:04:52;;;;;;;15.98;2.70;;;10.00;91.60;;;;;;20789329;28;20446;-46
2023/12/11 08:14:52;;;;;;;15.70;3.25;;;10.10;71.70;;;;;;20800380;28;20033;-46
2023/12/11 08:24:54;;;;;;;9.77;2.15;;;10.20;48.30;;;;;;20785953;28;20060;-46
2023/12/11 08:34:54;;;;;;;12.40;2.28;;;10.20;35.00;;;;;;20788931;28;20073;-46
2023/12/11 08:44:55;;;;;;;15.18;2.08;;;10.10;26.30;;;;;;20796586;28;20041;-46
2023/12/11 08:54:56;;;;;;;18.52;3.33;;;10.20;20.90;;;;;;20794573;28;20067;-46
2023/12/11 09:04:56;;;;;;;20.17;3.83;;;10.20;24.40;;;;;;20789768;28;22768;-46
2023/12/11 09:14:57;;;;;;;13.88;2.50;;;10.30;24.70;;;;;;20794954;28;20571;-46
2023/12/11 09:24:57;;;;;;;20.92;4.22;;;10.30;28.00;;;;;;20802982;28;20769;-46
2023/12/11 09:34:58;;;;;;;28.92;5.43;;;10.30;37.30;;;;;;20789342;28;20592;-47
2023/12/11 09:44:59;;;;;;;16.25;3.45;;;10.10;67.80;;;;;;20798844;28;20198;-46
2023/12/11 09:54:59;;;;;;;16.40;3.30;;;10.10;78.40;;;;;;20798963;28;20112;-46
2023/12/11 10:05:06;;;;;;;15.18;3.03;;;10.10;81.00;;;;;;20806979;28;20200;-47
2023/12/11 10:15:07;;;;;;;19.00;3.78;;;10.10;75.60;;;;;;20807835;28;20048;-47
2023/12/11 10:25:08;;;;;;;15.80;2.95;;;10.10;73.40;;;;;;20800650;28;20171;-46
2023/12/11 10:35:22;;;;;;;12.98;2.20;;;10.10;64.80;;;;;;20778673;28;20117;-46
2023/12/11 10:45:23;;;;;;;15.15;2.28;;;10.00;63.20;;;;;;20774600;28;20549;-47
2023/12/11 10:55:24;;;;;;;16.10;2.93;;;10.00;83.20;;;;;;20795289;28;20410;-47
2023/12/11 11:05:28;;;;;;;12.32;2.67;;;10.00;74.30;;;;;;20802625;28;21805;-46
2023/12/11 11:15:29;;;;;;;12.35;2.05;;;10.20;14.70;;;;;;20799743;28;20034;-47
2023/12/11 11:25:33;;;;;;;14.10;3.78;;;10.20;7.70;;;;;;20806951;28;20669;-47
2023/12/11 11:35:50;;;;;;;9.68;2.60;;;10.20;8.30;;;;;;20798462;28;20347;-47
2023/12/11 11:45:55;;;;;;;14.93;2.10;;;10.30;4.20;;;;;;20811085;28;20407;-47
2023/12/11 11:56:01;;;;;;;8.88;2.03;;;10.20;3.10;;;;;;20804876;28;20125;-47
2023/12/11 12:06:03;;;;;;;13.35;2.13;;;10.20;1.00;;;;;;20792176;28;20060;-46
2023/12/11 12:16:04;;;;;;;9.05;1.90;;;10.30;2.40;;;;;;20786629;28;20029;-48
2023/12/11 12:26:06;;;;;;;6.78;1.65;;;10.40;1.70;;;;;;20789115;28;20133;-48
2023/12/11 12:36:07;;;;;;;14.57;2.22;;;10.40;5.60;;;;;;20794172;28;20587;-48
2023/12/11 12:46:08;;;;;;;11.93;2.22;;;10.40;5.20;;;;;;20793968;28;20036;-48
2023/12/11 12:56:16;;;;;;;12.23;2.38;;;10.40;7.00;;;;;;20796541;28;21923;-47
2023/12/11 13:06:25;;;;;;;9.45;2.28;;;10.40;13.50;;;;;;20762554;28;21580;-49
2023/12/11 13:16:26;;;;;;;7.10;1.80;;;10.40;11.40;;;;;;20794816;28;20029;-48
2023/12/11 13:26:26;;;;;;;7.68;2.08;;;10.40;10.10;;;;;;20793277;28;20191;-48
2023/12/11 13:36:28;;;;;;;7.00;2.10;;;10.30;14.30;;;;;;20800255;28;20057;-48
2023/12/11 13:46:29;;;;;;;14.48;6.65;;;10.20;26.00;;;;;;20800987;28;20808;-47
2023/12/11 13:56:33;;;;;;;10.50;2.17;;;10.20;27.50;;;;;;20789410;28;20072;-47
2023/12/11 14:06:33;;;;;;;10.30;1.95;;;10.30;23.00;;;;;;20801636;28;20060;-48
2023/12/11 14:16:34;;;;;;;8.30;2.13;;;10.10;27.80;;;;;;20795638;28;20443;-48
2023/12/11 14:26:35;;;;;;;10.30;2.60;;;9.90;37.10;;;;;;20800637;28;20467;-48
2023/12/11 14:36:35;;;;;;;8.80;2.08;;;10.10;31.70;;;;;;20805911;28;20076;-48
2023/12/11 14:46:38;;;;;;;6.18;2.10;;;10.10;13.30;;;;;;20796385;28;20040;-48
2023/12/11 14:56:38;;;;;;;10.80;2.10;;;10.10;11.30;;;;;;20806494;28;20057;-48
2023/12/11 15:06:40;;;;;;;7.32;2.17;;;9.90;16.50;;;;;;20793668;28;20854;-48
2023/12/11 15:16:41;;;;;;;9.65;2.05;;;9.80;24.90;;;;;;20789863;28;20561;-48
2023/12/11 15:26:42;;;;;;;5.78;2.00;;;9.80;28.50;;;;;;20806926;28;20458;-47
2023/12/11 15:36:42;;;;;;;8.77;1.90;;;9.80;34.10;;;;;;20798910;28;20194;-47
2023/12/11 15:46:43;;;;;;;8.40;1.75;;;9.70;46.30;;;;;;20800650;28;20439;-47
2023/12/11 15:56:44;;;;;;;9.53;2.70;;;9.60;52.60;;;;;;20801327;28;20135;-47
2023/12/11 16:06:45;;;;;;;8.60;2.83;;;9.50;75.30;;;;;;20799652;28;20452;-47
2023/12/11 16:16:45;;;;;;;8.40;2.30;;;9.50;87.60;;;;;;20796279;28;20041;-47
2023/12/11 16:26:46;;;;;;;11.20;2.50;;;9.40;97.00;;;;;;20799387;28;20033;-47
2023/12/11 16:36:49;;;;;;;12.75;2.95;;;9.30;99.90;;;;;;20793294;28;20049;-46
2023/12/11 16:46:50;;;;;;;8.73;2.90;;;9.30;99.90;;;;;;20792003;28;20044;-46
2023/12/11 16:56:51;;;;;;;12.07;3.38;;;9.00;99.90;;;;;;20815840;28;20037;-46
2023/12/11 17:06:51;;;;;;;10.43;3.20;;;8.90;99.90;;;;;;20807644;28;20045;-46
2023/12/11 17:16:52;;;;;;;14.15;4.40;;;8.80;99.90;;;;;;20827476;28;20041;-46
2023/12/11 17:26:52;;;;;;;10.52;3.80;;;8.50;99.90;;;;;;20825962;28;20033;-46
2023/12/11 17:36:53;;;;;;;12.15;3.42;;;8.50;99.90;;;;;;20822548;28;20573;-46
2023/12/11 17:46:53;;;;;;;9.55;3.53;;;8.50;99.90;;;;;;20802421;28;20439;-46
2023/12/11 17:56:55;;;;;;;15.95;6.13;;;8.50;99.90;;;;;;20808154;28;20139;-46
2023/12/11 18:06:55;;;;;;;10.57;4.63;;;8.50;99.90;;;;;;20817081;28;20424;-47
2023/12/11 18:16:56;;;;;;;13.98;5.43;;;8.60;99.90;;;;;;20816052;28;20051;-47
2023/12/11 18:26:57;;;;;;;10.73;4.55;;;8.40;99.90;;;;;;20795378;28;20410;-47
2023/12/11 18:36:59;;;;;;;13.75;4.40;;;8.40;99.90;;;;;;20810121;28;20045;-46
2023/12/11 18:46:59;;;;;;;19.60;5.75;;;8.40;99.90;;;;;;20813096;28;20076;-46
2023/12/11 18:57:00;;;;;;;10.07;4.28;;;8.40;99.90;;;;;;20818447;28;20045;-47
2023/12/11 19:07:00;;;;;;;14.38;4.13;;;8.40;99.90;;;;;;20813880;28;20129;-46
2023/12/11 19:17:01;;;;;;;10.50;3.97;;;8.40;99.90;;;;;;20797421;28;20037;-46
2023/12/11 19:27:02;;;;;;;14.98;4.65;;;8.40;99.90;;;;;;20804276;28;20679;-47
2023/12/11 19:37:04;;;;;;;13.85;4.90;;;8.50;99.90;;;;;;20797090;28;20059;-46
2023/12/11 19:47:04;;;;;;;17.77;5.60;;;8.50;99.90;;;;;;20809613;28;20044;-46
2023/12/11 19:57:05;;;;;;;17.03;5.23;;;8.70;99.90;;;;;;20813133;28;20048;-46
2023/12/11 20:07:06;;;;;;;13.43;4.78;;;8.80;99.90;;;;;;20803635;28;20510;-46
2023/12/11 20:17:07;;;;;;;11.38;4.03;;;8.70;99.90;;;;;;20802375;28;20556;-46
2023/12/11 20:27:07;;;;;;;15.40;4.85;;;8.80;99.90;;;;;;20804902;28;20160;-46
2023/12/11 20:37:08;;;;;;;19.70;5.00;;;8.80;99.90;;;;;;20805551;28;20373;-45
2023/12/11 20:47:08;;;;;;;11.40;3.90;;;8.80;99.90;;;;;;20802023;28;20459;-46
2023/12/11 20:57:09;;;;;;;12.57;3.75;;;8.90;99.90;;;;;;20805728;28;20498;-46
2023/12/11 21:07:10;;;;;;;11.25;3.22;;;9.00;99.90;;;;;;20791951;28;20597;-46
2023/12/11 21:17:10;;;;;;;8.38;2.40;;;8.90;99.90;;;;;;20813047;28;20506;-45
2023/12/11 21:27:11;;;;;;;9.90;2.00;;;8.90;99.90;;;;;;20821587;28;20056;-46
2023/12/11 21:37:12;;;;;;;5.80;2.13;;;8.90;99.90;;;;;;20822037;28;20120;-46
2023/12/11 21:47:13;;;;;;;6.73;1.87;;;8.90;99.90;;;;;;20826161;28;20456;-45
2023/12/11 21:57:13;;;;;;;5.63;2.20;;;8.80;99.90;;;;;;20825844;28;20045;-46
2023/12/11 22:07:14;;;;;;;5.43;1.77;;;8.80;99.90;;;;;;20829233;28;20672;-46
2023/12/11 22:17:15;;;;;;;5.23;2.37;;;8.80;99.90;;;;;;20830410;28;20049;-46
2023/12/11 22:27:15;;;;;;;9.35;2.72;;;8.80;99.90;;;;;;20840023;28;20543;-46
2023/12/11 22:37:16;;;;;;;11.60;3.28;;;8.80;99.90;;;;;;20836876;28;20111;-46
2023/12/11 22:47:16;;;;;;;5.72;2.10;;;8.80;99.90;;;;;;20836765;28;20087;-46
2023/12/11 22:57:17;;;;;;;4.35;2.00;;;8.80;99.90;;;;;;20839442;28;20042;-46
2023/12/11 23:07:18;;;;;;;8.88;2.78;;;8.80;99.90;;;;;;20830112;28;20030;-46
2023/12/11 23:17:19;;;;;;;9.50;2.80;;;8.80;99.90;;;;;;20808075;28;20372;-46
2023/12/11 23:27:19;;;;;;;7.20;2.95;;;8.70;99.90;;;;;;20815053;28;20867;-46
2023/12/11 23:37:20;;;;;;;11.80;3.95;;;8.70;99.90;;;;;;20820035;28;20049;-46
2023/12/11 23:47:20;;;;;;;8.05;2.85;;;8.70;99.90;;;;;;20821049;28;20091;-46
2023/12/11 23:57:21;;;;;;;8.65;3.15;;;8.70;99.90;;;;;;20821497;28;20041;-46
